sensor_id;sensor_type;location;lat;lon;timestamp;pressure;altitude;pressure_sealevel;temperature;humidity
11856;BME280;5987;53.140;8.904;2022-11-27T00:01:31;102735.00;;;2.90;100.00
11856;BME280;5987;53.140;8.904;2022-11-27T00:04:35;102725.44;;;2.89;100.00
11856;BME280;5987;53.140;8.904;2022-11-27T00:07:39;102730.63;;;2.89;100.00
11856;BME280;5987;53.140;8.904;2022-11-27T00:10:43;102735.72;;;2.85;100.00
11856;BME280;5987;53.140;8.904;2022-11-27T00:13:49;102728.69;;;2.81;100.00
11856;BME280;5987;53.140;8.904;2022-11-27T00:16:53;102734.03;;;2.87;100.00
11856;BME280;5987;53.140;8.904;2022-11-27T00:19:56;102726.22;;;2.85;100.00
11856;BME280;5987;53.140;8.904;2022-11-27T00:23:00;102731.50;;;2.88;100.00
11856;BME280;5987;53.140;8.904;2022-11-27T00:26:05;102731.69;;;2.96;100.00
11856;BME280;5987;53.140;8.904;2022-11-27T00:29:10;102735.28;;;3.01;100.00
11856;BME280;5987;53.140;8.904;2022-11-27T00:32:14;102725.69;;;2.99;100.00
11856;BME280;5987;53.140;8.904;2022-11-27T00:35:17;102726.53;;;2.98;100.00
11856;BME280;5987;53.140;8.904;2022-11-27T00:38:21;102728.28;;;2.99;100.00
11856;BME280;5987;53.140;8.904;2022-11-27T00:41:28;102720.44;;;2.96;100.00
11856;BME280;5987;53.140;8.904;2022-11-27T00:44:33;102728.00;;;2.88;100.00
11856;BME280;5987;53.140;8.904;2022-11-27T00:47:37;102722.97;;;2.92;100.00
11856;BME280;5987;53.140;8.904;2022-11-27T00:50:40;102719.50;;;2.94;100.00
11856;BME280;5987;53.140;8.904;2022-11-27T00:53:45;102717.66;;;2.89;100.00
11856;BME280;5987;53.140;8.904;2022-11-27T00:56:49;102709.00;;;2.89;100.00
11856;BME280;5987;53.140;8.904;2022-11-27T00:59:54;102705.56;;;2.88;100.00
11856;BME280;5987;53.140;8.904;2022-11-27T01:02:57;102709.88;;;2.89;100.00
11856;BME280;5987;53.140;8.904;2022-11-27T01:06:03;102710.84;;;2.93;100.00
11856;BME280;5987;53.140;8.904;2022-11-27T01:09:09;102706.50;;;2.92;100.00
11856;BME280;5987;53.140;8.904;2022-11-27T01:12:12;102702.19;;;2.92;100.00
11856;BME280;5987;53.140;8.904;2022-11-27T01:15:17;102702.25;;;2.94;100.00
11856;BME280;5987;53.140;8.904;2022-11-27T01:18:21;102698.81;;;2.97;100.00
11856;BME280;5987;53.140;8.904;2022-11-27T01:21:27;102698.81;;;2.97;100.00
11856;BME280;5987;53.140;8.904;2022-11-27T01:24:32;102690.19;;;2.98;100.00
11856;BME280;5987;53.140;8.904;2022-11-27T01:27:35;102697.97;;;2.98;100.00
11856;BME280;5987;53.140;8.904;2022-11-27T01:30:40;102696.28;;;2.98;100.00
11856;BME280;5987;53.140;8.904;2022-11-27T01:33:45;102699.00;;;3.03;100.00
11856;BME280;5987;53.140;8.904;2022-11-27T01:36:49;102693.88;;;3.06;100.00
11856;BME280;5987;53.140;8.904;2022-11-27T01:39:53;102689.50;;;3.05;100.00
11856;BME280;5987;53.140;8.904;2022-11-27T01:42:56;102681.78;;;3.08;100.00
11856;BME280;5987;53.140;8.904;2022-11-27T01:46:02;102681.09;;;3.14;100.00
11856;BME280;5987;53.140;8.904;2022-11-27T01:49:26;102675.91;;;3.14;100.00
11856;BME280;5987;53.140;8.904;2022-11-27T01:52:35;102676.84;;;3.17;100.00
11856;BME280;5987;53.140;8.904;2022-11-27T01:55:44;102671.63;;;3.17;100.00
11856;BME280;5987;53.140;8.904;2022-11-27T01:58:50;102676.84;;;3.17;100.00
11856;BME280;5987;53.140;8.904;2022-11-27T02:01:56;102670.66;;;3.12;100.00
11856;BME280;5987;53.140;8.904;2022-11-27T02:05:00;102672.34;;;3.10;100.00
11856;BME280;5987;53.140;8.904;2022-11-27T02:08:10;102674.00;;;3.08;100.00
11856;BME280;5987;53.140;8.904;2022-11-27T02:11:25;102665.31;;;3.06;100.00
11856;BME280;5987;53.140;8.904;2022-11-27T02:14:42;102660.06;;;3.03;100.00
11856;BME280;5987;53.140;8.904;2022-11-27T02:17:56;102656.41;;;2.95;100.00
11856;BME280;5987;53.140;8.904;2022-11-27T02:21:12;102655.34;;;2.86;100.00
11856;BME280;5987;53.140;8.904;2022-11-27T02:24:48;102653.66;;;2.88;100.00
11856;BME280;5987;53.140;8.904;2022-11-27T02:28:16;102645.72;;;2.82;100.00
11856;BME280;5987;53.140;8.904;2022-11-27T02:31:35;102641.22;;;2.75;100.00
11856;BME280;5987;53.140;8.904;2022-11-27T02:34:49;102647.09;;;2.68;100.00
11856;BME280;5987;53.140;8.904;2022-11-27T02:37:59;102648.75;;;2.66;100.00
11856;BME280;5987;53.140;8.904;2022-11-27T02:41:09;102641.94;;;2.69;100.00
11856;BME280;5987;53.140;8.904;2022-11-27T02:44:17;102650.38;;;2.61;100.00
11856;BME280;5987;53.140;8.904;2022-11-27T02:47:27;102648.66;;;2.61;100.00
11856;BME280;5987;53.140;8.904;2022-11-27T02:50:35;102643.41;;;2.58;100.00
11856;BME280;5987;53.140;8.904;2022-11-27T02:53:45;102639.91;;;2.56;100.00
11856;BME280;5987;53.140;8.904;2022-11-27T02:56:52;102638.19;;;2.58;100.00
11856;BME280;5987;53.140;8.904;2022-11-27T02:59:58;102631.19;;;2.54;100.00
11856;BME280;5987;53.140;8.904;2022-11-27T03:03:08;102625.84;;;2.48;100.00
11856;BME280;5987;53.140;8.904;2022-11-27T03:06:21;102633.59;;;2.46;100.00
11856;BME280;5987;53.140;8.904;2022-11-27T03:09:33;102631.75;;;2.42;100.00
11856;BME280;5987;53.140;8.904;2022-11-27T03:12:38;102635.94;;;2.37;100.00
11856;BME280;5987;53.140;8.904;2022-11-27T03:15:50;102631.72;;;2.40;100.00
11856;BME280;5987;53.140;8.904;2022-11-27T03:19:07;102628.22;;;2.40;100.00
11856;BME280;5987;53.140;8.904;2022-11-27T03:22:16;102628.16;;;2.37;100.00
11856;BME280;5987;53.140;8.904;2022-11-27T03:25:20;102637.59;;;2.35;100.00
11856;BME280;5987;53.140;8.904;2022-11-27T03:28:26;102638.44;;;2.34;100.00
11856;BME280;5987;53.140;8.904;2022-11-27T03:31:30;102641.88;;;2.33;100.00
11856;BME280;5987;53.140;8.904;2022-11-27T03:34:36;102638.13;;;2.21;100.00
11856;BME280;5987;53.140;8.904;2022-11-27T03:37:41;102639.97;;;2.26;100.00
11856;BME280;5987;53.140;8.904;2022-11-27T03:40:57;102642.56;;;2.26;100.00
11856;BME280;5987;53.140;8.904;2022-11-27T03:44:12;102643.59;;;2.32;100.00
11856;BME280;5987;53.140;8.904;2022-11-27T03:47:34;102638.19;;;2.25;100.00
11856;BME280;5987;53.140;8.904;2022-11-27T03:51:00;102634.69;;;2.22;100.00
11856;BME280;5987;53.140;8.904;2022-11-27T03:54:15;102620.13;;;2.28;100.00
11856;BME280;5987;53.140;8.904;2022-11-27T03:57:28;102610.50;;;2.23;100.00
11856;BME280;5987;53.140;8.904;2022-11-27T04:00:40;102611.16;;;2.15;100.00
11856;BME280;5987;53.140;8.904;2022-11-27T04:03:44;102616.38;;;2.16;100.00
11856;BME280;5987;53.140;8.904;2022-11-27T04:06:49;102608.53;;;2.13;100.00
11856;BME280;5987;53.140;8.904;2022-11-27T04:09:53;102611.00;;;2.09;100.00
11856;BME280;5987;53.140;8.904;2022-11-27T04:12:56;102614.47;;;2.09;100.00
11856;BME280;5987;53.140;8.904;2022-11-27T04:16:01;102619.59;;;2.08;100.00
11856;BME280;5987;53.140;8.904;2022-11-27T04:19:04;102608.28;;;2.04;100.00
11856;BME280;5987;53.140;8.904;2022-11-27T04:22:10;102600.28;;;1.96;100.00
11856;BME280;5987;53.140;8.904;2022-11-27T04:25:14;102600.94;;;1.87;100.00
11856;BME280;5987;53.140;8.904;2022-11-27T04:28:18;102592.94;;;1.80;100.00
11856;BME280;5987;53.140;8.904;2022-11-27T04:31:21;102600.50;;;1.72;100.00
11856;BME280;5987;53.140;8.904;2022-11-27T04:34:25;102596.84;;;1.65;100.00
11856;BME280;5987;53.140;8.904;2022-11-27T04:37:30;102595.03;;;1.63;100.00
11856;BME280;5987;53.140;8.904;2022-11-27T04:40:34;102587.19;;;1.60;100.00
11856;BME280;5987;53.140;8.904;2022-11-27T04:43:37;102587.22;;;1.61;100.00
11856;BME280;5987;53.140;8.904;2022-11-27T04:46:41;102580.09;;;1.52;100.00
11856;BME280;5987;53.140;8.904;2022-11-27T04:49:45;102567.03;;;1.48;100.00
11856;BME280;5987;53.140;8.904;2022-11-27T04:52:50;102559.97;;;1.42;100.00
11856;BME280;5987;53.140;8.904;2022-11-27T04:55:54;102543.56;;;1.43;100.00
11856;BME280;5987;53.140;8.904;2022-11-27T04:58:58;102552.81;;;1.35;100.00
11856;BME280;5987;53.140;8.904;2022-11-27T05:02:01;102554.78;;;1.42;100.00
11856;BME280;5987;53.140;8.904;2022-11-27T05:05:06;102547.94;;;1.44;100.00
11856;BME280;5987;53.140;8.904;2022-11-27T05:08:11;102548.09;;;1.50;100.00
11856;BME280;5987;53.140;8.904;2022-11-27T05:11:16;102545.22;;;1.40;100.00
11856;BME280;5987;53.140;8.904;2022-11-27T05:14:20;102540.13;;;1.43;100.00
11856;BME280;5987;53.140;8.904;2022-11-27T05:17:28;102545.91;;;1.34;100.00
11856;BME280;5987;53.140;8.904;2022-11-27T05:20:31;102540.78;;;1.35;100.00
11856;BME280;5987;53.140;8.904;2022-11-27T05:23:36;102530.38;;;1.34;100.00
11856;BME280;5987;53.140;8.904;2022-11-27T05:26:41;102514.94;;;1.37;100.00
11856;BME280;5987;53.140;8.904;2022-11-27T05:29:44;102522.53;;;1.31;100.00
11856;BME280;5987;53.140;8.904;2022-11-27T05:32:48;102515.88;;;1.41;100.00
11856;BME280;5987;53.140;8.904;2022-11-27T05:35:52;102520.06;;;1.35;100.00
11856;BME280;5987;53.140;8.904;2022-11-27T05:38:57;102518.34;;;1.36;100.00
11856;BME280;5987;53.140;8.904;2022-11-27T05:42:00;102515.81;;;1.37;100.00
11856;BME280;5987;53.140;8.904;2022-11-27T05:45:05;102519.06;;;1.30;100.00
11856;BME280;5987;53.140;8.904;2022-11-27T05:48:09;102525.91;;;1.28;100.00
11856;BME280;5987;53.140;8.904;2022-11-27T05:51:14;102529.31;;;1.27;100.00
11856;BME280;5987;53.140;8.904;2022-11-27T05:54:19;102525.75;;;1.24;100.00
11856;BME280;5987;53.140;8.904;2022-11-27T05:57:23;102525.47;;;1.13;100.00
11856;BME280;5987;53.140;8.904;2022-11-27T06:00:26;102518.53;;;1.12;100.00
11856;BME280;5987;53.140;8.904;2022-11-27T06:03:30;102505.72;;;1.16;100.00
11856;BME280;5987;53.140;8.904;2022-11-27T06:06:34;102501.47;;;1.18;100.00
11856;BME280;5987;53.140;8.904;2022-11-27T06:09:39;102497.06;;;1.14;100.00
11856;BME280;5987;53.140;8.904;2022-11-27T06:12:43;102484.94;;;1.13;100.00
11856;BME280;5987;53.140;8.904;2022-11-27T06:15:47;102496.81;;;1.07;100.00
11856;BME280;5987;53.140;8.904;2022-11-27T06:18:53;102491.59;;;1.05;100.00
11856;BME280;5987;53.140;8.904;2022-11-27T06:21:57;102495.84;;;1.03;100.00
11856;BME280;5987;53.140;8.904;2022-11-27T06:25:02;102488.94;;;1.02;100.00
11856;BME280;5987;53.140;8.904;2022-11-27T06:28:05;102491.50;;;1.02;100.00
11856;BME280;5987;53.140;8.904;2022-11-27T06:31:12;102482.03;;;1.02;100.00
11856;BME280;5987;53.140;8.904;2022-11-27T06:34:19;102477.56;;;0.97;100.00
11856;BME280;5987;53.140;8.904;2022-11-27T06:37:23;102489.66;;;0.98;100.00
11856;BME280;5987;53.140;8.904;2022-11-27T06:40:28;102476.66;;;0.95;100.00
11856;BME280;5987;53.140;8.904;2022-11-27T06:43:32;102473.09;;;0.91;100.00
11856;BME280;5987;53.140;8.904;2022-11-27T06:46:36;102468.81;;;0.92;100.00
11856;BME280;5987;53.140;8.904;2022-11-27T06:49:40;102462.66;;;0.88;100.00
11856;BME280;5987;53.140;8.904;2022-11-27T06:52:43;102458.34;;;0.89;100.00
11856;BME280;5987;53.140;8.904;2022-11-27T06:55:48;102464.38;;;0.88;100.00
11856;BME280;5987;53.140;8.904;2022-11-27T06:58:54;102451.25;;;0.81;100.00
11856;BME280;5987;53.140;8.904;2022-11-27T07:01:58;102456.53;;;0.84;100.00
11856;BME280;5987;53.140;8.904;2022-11-27T07:05:02;102442.66;;;0.82;100.00
11856;BME280;5987;53.140;8.904;2022-11-27T07:08:06;102437.56;;;0.85;100.00
11856;BME280;5987;53.140;8.904;2022-11-27T07:11:14;102439.41;;;0.90;100.00
11856;BME280;5987;53.140;8.904;2022-11-27T07:14:19;102450.41;;;0.82;100.00
11856;BME280;5987;53.140;8.904;2022-11-27T07:17:23;102451.53;;;0.91;100.00
11856;BME280;5987;53.140;8.904;2022-11-27T07:20:26;102463.63;;;0.92;100.00
11856;BME280;5987;53.140;8.904;2022-11-27T07:23:30;102461.13;;;0.95;100.00
11856;BME280;5987;53.140;8.904;2022-11-27T07:26:35;102460.16;;;0.91;100.00
11856;BME280;5987;53.140;8.904;2022-11-27T07:29:39;102448.00;;;0.89;100.00
11856;BME280;5987;53.140;8.904;2022-11-27T07:32:43;102448.97;;;0.92;100.00
11856;BME280;5987;53.140;8.904;2022-11-27T07:35:47;102440.19;;;0.87;100.00
11856;BME280;5987;53.140;8.904;2022-11-27T07:38:51;102448.94;;;0.91;100.00
11856;BME280;5987;53.140;8.904;2022-11-27T07:41:56;102454.97;;;0.91;100.00
11856;BME280;5987;53.140;8.904;2022-11-27T07:45:09;102454.44;;;1.01;100.00
11856;BME280;5987;53.140;8.904;2022-11-27T07:48:12;102450.03;;;0.99;100.00
11856;BME280;5987;53.140;8.904;2022-11-27T07:51:19;102454.53;;;1.05;100.00
11856;BME280;5987;53.140;8.904;2022-11-27T07:54:24;102451.44;;;1.18;100.00
11856;BME280;5987;53.140;8.904;2022-11-27T07:57:29;102446.06;;;1.10;100.00
11856;BME280;5987;53.140;8.904;2022-11-27T08:00:34;102448.84;;;1.18;100.00
11856;BME280;5987;53.140;8.904;2022-11-27T08:03:38;102447.06;;;1.15;100.00
11856;BME280;5987;53.140;8.904;2022-11-27T08:06:47;102441.78;;;1.12;100.00
11856;BME280;5987;53.140;8.904;2022-11-27T08:09:51;102440.22;;;1.17;100.00
11856;BME280;5987;53.140;8.904;2022-11-27T08:12:57;102431.63;;;1.18;100.00
11856;BME280;5987;53.140;8.904;2022-11-27T08:16:00;102422.19;;;1.20;100.00
11856;BME280;5987;53.140;8.904;2022-11-27T08:19:04;102423.00;;;1.19;100.00
11856;BME280;5987;53.140;8.904;2022-11-27T08:22:11;102421.44;;;1.25;100.00
11856;BME280;5987;53.140;8.904;2022-11-27T08:25:16;102423.31;;;1.30;100.00
11856;BME280;5987;53.140;8.904;2022-11-27T08:28:36;102428.56;;;1.33;100.00
11856;BME280;5987;53.140;8.904;2022-11-27T08:32:03;102426.09;;;1.36;100.00
11856;BME280;5987;53.140;8.904;2022-11-27T08:35:17;102418.38;;;1.38;100.00
11856;BME280;5987;53.140;8.904;2022-11-27T08:38:21;102405.44;;;1.38;100.00
11856;BME280;5987;53.140;8.904;2022-11-27T08:41:25;102391.50;;;1.34;100.00
11856;BME280;5987;53.140;8.904;2022-11-27T08:44:30;102400.94;;;1.31;100.00
11856;BME280;5987;53.140;8.904;2022-11-27T08:47:34;102392.22;;;1.29;100.00
11856;BME280;5987;53.140;8.904;2022-11-27T08:50:38;102398.38;;;1.32;100.00
11856;BME280;5987;53.140;8.904;2022-11-27T08:53:42;102388.81;;;1.30;100.00
11856;BME280;5987;53.140;8.904;2022-11-27T08:56:47;102383.81;;;1.37;100.00
11856;BME280;5987;53.140;8.904;2022-11-27T08:59:52;102380.34;;;1.35;100.00
11856;BME280;5987;53.140;8.904;2022-11-27T09:02:57;102379.75;;;1.47;100.00
11856;BME280;5987;53.140;8.904;2022-11-27T09:06:05;102374.88;;;1.58;100.00
11856;BME280;5987;53.140;8.904;2022-11-27T09:09:09;102363.94;;;1.70;100.00
11856;BME280;5987;53.140;8.904;2022-11-27T09:12:13;102346.94;;;1.81;100.00
11856;BME280;5987;53.140;8.904;2022-11-27T09:15:18;102349.59;;;1.83;100.00
11856;BME280;5987;53.140;8.904;2022-11-27T09:18:23;102343.13;;;2.02;100.00
11856;BME280;5987;53.140;8.904;2022-11-27T09:21:29;102344.97;;;2.08;100.00
11856;BME280;5987;53.140;8.904;2022-11-27T09:24:33;102340.94;;;2.20;100.00
11856;BME280;5987;53.140;8.904;2022-11-27T09:27:39;102334.22;;;2.29;100.00
11856;BME280;5987;53.140;8.904;2022-11-27T09:30:44;102327.41;;;2.34;100.00
11856;BME280;5987;53.140;8.904;2022-11-27T09:33:49;102319.84;;;2.45;100.00
11856;BME280;5987;53.140;8.904;2022-11-27T09:36:53;102323.38;;;2.47;100.00
11856;BME280;5987;53.140;8.904;2022-11-27T09:39:57;102333.88;;;2.54;100.00
11856;BME280;5987;53.140;8.904;2022-11-27T09:43:05;102345.28;;;2.63;100.00
11856;BME280;5987;53.140;8.904;2022-11-27T09:46:24;102342.88;;;2.70;100.00
11856;BME280;5987;53.140;8.904;2022-11-27T09:49:40;102340.28;;;2.72;100.00
11856;BME280;5987;53.140;8.904;2022-11-27T09:52:51;102345.78;;;2.87;100.00
11856;BME280;5987;53.140;8.904;2022-11-27T09:56:00;102344.88;;;2.85;100.00
11856;BME280;5987;53.140;8.904;2022-11-27T09:59:15;102340.84;;;3.00;100.00
11856;BME280;5987;53.140;8.904;2022-11-27T10:02:27;102347.88;;;3.05;100.00
11856;BME280;5987;53.140;8.904;2022-11-27T10:05:41;102328.16;;;3.15;100.00
11856;BME280;5987;53.140;8.904;2022-11-27T10:09:01;102335.03;;;3.13;100.00
11856;BME280;5987;53.140;8.904;2022-11-27T10:12:16;102336.75;;;3.13;100.00
11856;BME280;5987;53.140;8.904;2022-11-27T10:15:36;102332.75;;;3.32;100.00
11856;BME280;5987;53.140;8.904;2022-11-27T10:18:47;102327.56;;;3.33;100.00
11856;BME280;5987;53.140;8.904;2022-11-27T10:21:58;102323.25;;;3.32;100.00
11856;BME280;5987;53.140;8.904;2022-11-27T10:25:18;102320.81;;;3.43;100.00
11856;BME280;5987;53.140;8.904;2022-11-27T10:28:32;102327.13;;;3.56;100.00
11856;BME280;5987;53.140;8.904;2022-11-27T10:31:48;102318.44;;;3.55;100.00
11856;BME280;5987;53.140;8.904;2022-11-27T10:34:58;102328.06;;;3.61;100.00
11856;BME280;5987;53.140;8.904;2022-11-27T10:38:10;102323.66;;;3.57;100.00
11856;BME280;5987;53.140;8.904;2022-11-27T10:41:23;102327.16;;;3.57;100.00
11856;BME280;5987;53.140;8.904;2022-11-27T10:44:51;102314.25;;;3.65;100.00
11856;BME280;5987;53.140;8.904;2022-11-27T10:47:57;102314.31;;;3.70;100.00
11856;BME280;5987;53.140;8.904;2022-11-27T10:51:02;102308.53;;;3.88;100.00
11856;BME280;5987;53.140;8.904;2022-11-27T10:54:17;102304.13;;;3.82;100.00
11856;BME280;5987;53.140;8.904;2022-11-27T10:57:56;102297.19;;;3.81;100.00
11856;BME280;5987;53.140;8.904;2022-11-27T11:01:09;102295.06;;;4.14;100.00
11856;BME280;5987;53.140;8.904;2022-11-27T11:04:21;102289.59;;;3.97;100.00
11856;BME280;5987;53.140;8.904;2022-11-27T11:07:41;102288.91;;;4.07;100.00
11856;BME280;5987;53.140;8.904;2022-11-27T11:10:51;102290.56;;;4.02;100.00
11856;BME280;5987;53.140;8.904;2022-11-27T11:13:55;102282.03;;;4.12;100.00
11856;BME280;5987;53.140;8.904;2022-11-27T11:16:59;102270.09;;;4.26;100.00
11856;BME280;5987;53.140;8.904;2022-11-27T11:20:18;102258.69;;;4.14;100.00
11856;BME280;5987;53.140;8.904;2022-11-27T11:23:31;102264.25;;;4.44;100.00
11856;BME280;5987;53.140;8.904;2022-11-27T11:26:39;102253.56;;;4.23;100.00
11856;BME280;5987;53.140;8.904;2022-11-27T11:29:49;102256.38;;;4.40;100.00
11856;BME280;5987;53.140;8.904;2022-11-27T11:33:00;102245.31;;;4.56;100.00
11856;BME280;5987;53.140;8.904;2022-11-27T11:36:09;102244.47;;;4.60;100.00
11856;BME280;5987;53.140;8.904;2022-11-27T11:39:23;102239.94;;;4.44;100.00
11856;BME280;5987;53.140;8.904;2022-11-27T11:42:31;102237.56;;;4.62;100.00
11856;BME280;5987;53.140;8.904;2022-11-27T11:45:45;102232.13;;;4.41;100.00
11856;BME280;5987;53.140;8.904;2022-11-27T11:48:59;102238.19;;;4.41;100.00
11856;BME280;5987;53.140;8.904;2022-11-27T11:52:16;102232.28;;;4.53;100.00
11856;BME280;5987;53.140;8.904;2022-11-27T11:55:32;102225.25;;;4.46;100.00
11856;BME280;5987;53.140;8.904;2022-11-27T11:58:53;102220.97;;;4.51;100.00
11856;BME280;5987;53.140;8.904;2022-11-27T12:02:35;102213.13;;;4.48;100.00
11856;BME280;5987;53.140;8.904;2022-11-27T12:06:02;102202.84;;;4.59;100.00
11856;BME280;5987;53.140;8.904;2022-11-27T12:09:35;102199.28;;;4.49;100.00
11856;BME280;5987;53.140;8.904;2022-11-27T12:12:58;102204.44;;;4.46;100.00
11856;BME280;5987;53.140;8.904;2022-11-27T12:16:15;102193.16;;;4.45;100.00
11856;BME280;5987;53.140;8.904;2022-11-27T12:19:54;102187.25;;;4.59;100.00
11856;BME280;5987;53.140;8.904;2022-11-27T12:23:36;102190.66;;;4.55;100.00
11856;BME280;5987;53.140;8.904;2022-11-27T12:27:01;102182.09;;;4.68;100.00
11856;BME280;5987;53.140;8.904;2022-11-27T12:30:16;102178.69;;;4.74;100.00
11856;BME280;5987;53.140;8.904;2022-11-27T12:33:42;102183.06;;;4.76;100.00
11856;BME280;5987;53.140;8.904;2022-11-27T12:37:21;102167.44;;;4.75;100.00
11856;BME280;5987;53.140;8.904;2022-11-27T12:40:46;102159.66;;;4.78;100.00
11856;BME280;5987;53.140;8.904;2022-11-27T12:43:56;102158.81;;;4.84;100.00
11856;BME280;5987;53.140;8.904;2022-11-27T12:47:08;102149.22;;;4.73;100.00
11856;BME280;5987;53.140;8.904;2022-11-27T12:50:20;102140.47;;;4.67;100.00
11856;BME280;5987;53.140;8.904;2022-11-27T12:53:42;102143.97;;;4.67;100.00
11856;BME280;5987;53.140;8.904;2022-11-27T12:56:51;102138.75;;;4.66;100.00
11856;BME280;5987;53.140;8.904;2022-11-27T13:00:04;102143.91;;;4.62;100.00
11856;BME280;5987;53.140;8.904;2022-11-27T13:03:24;102137.88;;;4.67;100.00
11856;BME280;5987;53.140;8.904;2022-11-27T13:06:35;102126.63;;;4.71;100.00
11856;BME280;5987;53.140;8.904;2022-11-27T13:09:50;102130.97;;;4.67;100.00
11856;BME280;5987;53.140;8.904;2022-11-27T13:13:04;102111.00;;;4.64;100.00
11856;BME280;5987;53.140;8.904;2022-11-27T13:16:14;102118.81;;;4.66;100.00
11856;BME280;5987;53.140;8.904;2022-11-27T13:19:28;102121.44;;;4.71;100.00
11856;BME280;5987;53.140;8.904;2022-11-27T13:22:36;102111.09;;;4.77;100.00
11856;BME280;5987;53.140;8.904;2022-11-27T13:25:45;102101.53;;;4.74;100.00
11856;BME280;5987;53.140;8.904;2022-11-27T13:28:54;102097.19;;;4.78;100.00
11856;BME280;5987;53.140;8.904;2022-11-27T13:32:03;102097.19;;;4.75;100.00
11856;BME280;5987;53.140;8.904;2022-11-27T13:35:24;102097.19;;;4.78;100.00
11856;BME280;5987;53.140;8.904;2022-11-27T13:38:29;102091.16;;;4.79;100.00
11856;BME280;5987;53.140;8.904;2022-11-27T13:41:37;102103.31;;;4.83;100.00
11856;BME280;5987;53.140;8.904;2022-11-27T13:44:51;102083.44;;;4.90;100.00
11856;BME280;5987;53.140;8.904;2022-11-27T13:47:59;102076.47;;;4.86;100.00
11856;BME280;5987;53.140;8.904;2022-11-27T13:51:07;102073.03;;;4.90;100.00
11856;BME280;5987;53.140;8.904;2022-11-27T13:54:14;102067.81;;;4.90;100.00
11856;BME280;5987;53.140;8.904;2022-11-27T13:57:20;102071.28;;;4.90;100.00
11856;BME280;5987;53.140;8.904;2022-11-27T14:00:38;102073.00;;;4.88;100.00
11856;BME280;5987;53.140;8.904;2022-11-27T14:03:43;102067.81;;;4.93;100.00
11856;BME280;5987;53.140;8.904;2022-11-27T14:06:56;102067.81;;;4.88;100.00
11856;BME280;5987;53.140;8.904;2022-11-27T14:10:09;102062.59;;;4.88;100.00
11856;BME280;5987;53.140;8.904;2022-11-27T14:13:16;102060.88;;;4.90;100.00
11856;BME280;5987;53.140;8.904;2022-11-27T14:16:29;102060.00;;;4.91;100.00
11856;BME280;5987;53.140;8.904;2022-11-27T14:19:40;102060.03;;;4.97;100.00
11856;BME280;5987;53.140;8.904;2022-11-27T14:22:48;102053.06;;;4.90;100.00
11856;BME280;5987;53.140;8.904;2022-11-27T14:26:21;102043.53;;;4.92;100.00
11856;BME280;5987;53.140;8.904;2022-11-27T14:29:29;102034.84;;;4.95;100.00
11856;BME280;5987;53.140;8.904;2022-11-27T14:32:34;102020.97;;;4.91;100.00
11856;BME280;5987;53.140;8.904;2022-11-27T14:35:39;102024.50;;;4.96;100.00
11856;BME280;5987;53.140;8.904;2022-11-27T14:38:45;102017.53;;;4.98;100.00
11856;BME280;5987;53.140;8.904;2022-11-27T14:42:01;102015.78;;;4.91;100.00
11856;BME280;5987;53.140;8.904;2022-11-27T14:45:11;102001.91;;;4.92;100.00
11856;BME280;5987;53.140;8.904;2022-11-27T14:48:21;101998.41;;;4.93;100.00
11856;BME280;5987;53.140;8.904;2022-11-27T14:51:29;101991.50;;;4.92;100.00
11856;BME280;5987;53.140;8.904;2022-11-27T14:54:38;101990.59;;;4.92;100.00
11856;BME280;5987;53.140;8.904;2022-11-27T14:57:43;101994.88;;;4.82;100.00
11856;BME280;5987;53.140;8.904;2022-11-27T15:00:55;101973.22;;;4.81;100.00
11856;BME280;5987;53.140;8.904;2022-11-27T15:04:01;101974.97;;;4.84;100.00
11856;BME280;5987;53.140;8.904;2022-11-27T15:07:14;101978.44;;;4.86;100.00
11856;BME280;5987;53.140;8.904;2022-11-27T15:10:39;101979.28;;;4.82;100.00
11856;BME280;5987;53.140;8.904;2022-11-27T15:13:52;101975.81;;;4.80;100.00
11856;BME280;5987;53.140;8.904;2022-11-27T15:17:03;101975.78;;;4.77;100.00
11856;BME280;5987;53.140;8.904;2022-11-27T15:20:13;101972.31;;;4.75;100.00
11856;BME280;5987;53.140;8.904;2022-11-27T15:23:21;101971.44;;;4.77;100.00
11856;BME280;5987;53.140;8.904;2022-11-27T15:26:35;101955.84;;;4.82;100.00
11856;BME280;5987;53.140;8.904;2022-11-27T15:30:07;101958.47;;;4.82;100.00
11856;BME280;5987;53.140;8.904;2022-11-27T15:33:25;101960.22;;;4.89;100.00
11856;BME280;5987;53.140;8.904;2022-11-27T15:36:41;101955.00;;;4.86;100.00
11856;BME280;5987;53.140;8.904;2022-11-27T15:39:52;101951.56;;;4.87;100.00
11856;BME280;5987;53.140;8.904;2022-11-27T15:42:58;101946.34;;;4.90;100.00
11856;BME280;5987;53.140;8.904;2022-11-27T15:46:05;101949.78;;;4.80;100.00
11856;BME280;5987;53.140;8.904;2022-11-27T15:49:12;101945.41;;;4.74;100.00
11856;BME280;5987;53.140;8.904;2022-11-27T15:52:16;101935.88;;;4.75;100.00
11856;BME280;5987;53.140;8.904;2022-11-27T15:55:21;101935.88;;;4.75;100.00
11856;BME280;5987;53.140;8.904;2022-11-27T15:58:26;101930.66;;;4.72;100.00
11856;BME280;5987;53.140;8.904;2022-11-27T16:01:30;101928.06;;;4.70;100.00
11856;BME280;5987;53.140;8.904;2022-11-27T16:04:34;101923.72;;;4.71;100.00
11856;BME280;5987;53.140;8.904;2022-11-27T16:07:37;101916.75;;;4.67;100.00
11856;BME280;5987;53.140;8.904;2022-11-27T16:10:42;101916.75;;;4.67;100.00
11856;BME280;5987;53.140;8.904;2022-11-27T16:13:48;101908.09;;;4.64;100.00
11856;BME280;5987;53.140;8.904;2022-11-27T16:16:52;101898.53;;;4.62;100.00
11856;BME280;5987;53.140;8.904;2022-11-27T16:19:56;101906.34;;;4.63;100.00
11856;BME280;5987;53.140;8.904;2022-11-27T16:22:59;101902.00;;;4.64;100.00
11856;BME280;5987;53.140;8.904;2022-11-27T16:26:03;101887.28;;;4.64;100.00
11856;BME280;5987;53.140;8.904;2022-11-27T16:29:10;101886.44;;;4.67;100.00
11856;BME280;5987;53.140;8.904;2022-11-27T16:32:15;101870.81;;;4.67;100.00
11856;BME280;5987;53.140;8.904;2022-11-27T16:35:18;101864.72;;;4.67;100.00
11856;BME280;5987;53.140;8.904;2022-11-27T16:38:22;101856.06;;;4.68;100.00
11856;BME280;5987;53.140;8.904;2022-11-27T16:41:26;101848.25;;;4.69;100.00